Time;durP1;ratioP1;P1;durP2;ratioP2;P2;SDS_P1;SDS_P2;PMS_P1;PMS_P2;Temp;Humidity;BMP_temperature;BMP_pressure;BME280_temperature;BME280_humidity;BME280_pressure;Samples;Min_cycle;Max_cycle;Signal;HPM_P1;HPM_P2
2021/12/24 00:00:41;;;;;;;5.32;3.22;;;;;;;4.28;100.00;99199.16;6013548;29;20045;-92
2021/12/24 00:03:43;;;;;;;3.83;2.95;;;;;;;4.27;100.00;99202.63;6015358;29;20050;-91
2021/12/24 00:06:46;;;;;;;3.30;2.72;;;;;;;4.26;100.00;99194.13;6006952;29;20049;-92
2021/12/24 00:10:00;;;;;;;3.83;2.90;;;;;;;4.33;100.00;99197.06;6754375;24;20094;-94
2021/12/24 00:13:18;;;;;;;3.78;2.95;;;;;;;4.30;100.00;99197.28;6059580;29;20050;-94
2021/12/24 00:16:31;;;;;;;3.67;2.67;;;;;;;4.31;100.00;99189.47;6047806;29;20050;-95
2021/12/24 00:37:46;;;;;;;2.75;2.53;;;;;;;4.42;100.00;99168.19;6074253;29;20037;-94
2021/12/24 00:40:55;;;;;;;4.88;3.63;;;;;;;4.44;100.00;99163.75;6045211;29;20045;-94
2021/12/24 00:44:04;;;;;;;4.13;3.33;;;;;;;4.39;100.00;99167.59;6083865;24;20050;-94
2021/12/24 00:47:36;;;;;;;5.55;3.75;;;;;;;4.43;100.00;99164.69;6228430;23;20065;-95
2021/12/24 00:57:27;;;;;;;4.80;3.42;;;;;;;4.47;100.00;99147.34;6036453;29;20495;-94
2021/12/24 01:00:39;;;;;;;3.25;2.60;;;;;;;4.47;100.00;99155.84;6032466;29;20498;-94
2021/12/24 01:03:42;;;;;;;3.08;2.78;;;;;;;4.49;100.00;99153.16;6032626;29;20407;-93
2021/12/24 01:06:45;;;;;;;3.95;2.80;;;;;;;4.57;100.00;99155.13;5996221;29;20081;-94
2021/12/24 01:09:47;;;;;;;3.35;2.85;;;;;;;4.57;100.00;99145.72;6028684;29;20141;-95
2021/12/24 01:12:50;;;;;;;3.55;2.78;;;;;;;4.56;100.00;99146.63;6013713;29;20045;-94
2021/12/24 01:16:23;;;;;;;3.90;2.67;;;;;;;4.59;100.00;99148.16;6053374;29;20033;-95
2021/12/24 01:19:38;;;;;;;3.28;2.67;;;;;;;4.65;100.00;99140.00;6076320;24;20511;-94
2021/12/24 01:23:26;;;;;;;3.58;2.55;;;;;;;4.63;100.00;99135.00;6029087;29;20052;-95
2021/12/24 01:26:34;;;;;;;3.42;2.35;;;;;;;4.68;100.00;99137.22;6045708;29;20055;-94
2021/12/24 01:30:00;;;;;;;4.32;2.35;;;;;;;4.73;100.00;99138.47;6035267;29;20048;-94
2021/12/24 01:40:51;;;;;;;3.83;2.30;;;;;;;4.84;100.00;99136.81;6170661;23;20499;-94
2021/12/24 01:47:07;;;;;;;2.97;2.30;;;;;;;4.73;100.00;99128.22;6570770;23;20865;-94
2021/12/24 01:58:41;;;;;;;1.90;1.70;;;;;;;4.86;100.00;99128.09;7369520;23;20028;31
2021/12/24 02:02:16;;;;;;;2.10;1.50;;;;;;;4.88;100.00;99125.41;6555257;23;20028;-93
2021/12/24 02:05:40;;;;;;;1.38;1.27;;;;;;;4.90;100.00;99126.91;6500060;23;20081;-94
2021/12/24 02:09:18;;;;;;;1.30;1.20;;;;;;;4.87;100.00;99121.19;6431463;24;20049;-93
2021/12/24 02:12:26;;;;;;;1.38;1.17;;;;;;;5.00;100.00;99113.38;6051198;29;20052;-93
2021/12/24 02:29:06;;;;;;;1.30;1.20;;;;;;;5.08;100.00;99100.75;6046956;29;20060;-93
2021/12/24 02:32:08;;;;;;;1.63;1.45;;;;;;;5.11;100.00;99105.66;6042859;29;20064;-93
2021/12/24 02:35:10;;;;;;;1.02;1.00;;;;;;;5.10;100.00;99086.88;6039764;29;20057;-93
2021/12/24 02:38:12;;;;;;;1.38;1.25;;;;;;;5.07;100.00;99079.44;6045791;29;20094;-92
2021/12/24 02:41:15;;;;;;;1.30;1.20;;;;;;;5.12;100.00;99081.66;6046734;29;20045;-93
2021/12/24 02:44:19;;;;;;;1.60;1.50;;;;;;;5.16;100.00;99085.56;6054544;29;20061;-94
2021/12/24 02:56:59;;;;;;;3.63;1.10;;;;;;;5.27;100.00;99074.47;6022973;29;20082;-93
2021/12/24 03:00:25;;;;;;;1.30;1.15;;;;;;;5.22;100.00;99074.84;6041495;29;20053;-92
2021/12/24 03:03:28;;;;;;;1.85;1.50;;;;;;;5.27;100.00;99069.34;6036034;29;20064;-92
2021/12/24 03:06:33;;;;;;;1.42;1.33;;;;;;;5.33;100.00;99059.38;6031115;29;20061;-93
2021/12/24 03:09:35;;;;;;;1.77;1.50;;;;;;;5.36;100.00;99055.75;6035986;29;20046;-93
2021/12/24 03:12:38;;;;;;;2.17;1.50;;;;;;;5.38;100.00;99061.59;6029394;29;20041;-93
2021/12/24 03:15:40;;;;;;;1.88;1.48;;;;;;;5.36;100.00;99059.13;6035683;29;20101;-92
2021/12/24 03:18:44;;;;;;;2.03;1.58;;;;;;;5.36;100.00;99054.00;6039353;29;20117;-93
2021/12/24 03:22:09;;;;;;;2.40;1.88;;;;;;;5.52;100.00;99043.31;6028208;29;20482;-93
2021/12/24 03:25:12;;;;;;;2.40;2.00;;;;;;;5.54;100.00;99046.56;6048015;29;20401;-93
2021/12/24 03:28:14;;;;;;;2.58;1.75;;;;;;;5.46;100.00;99040.44;6040386;29;20050;-93
2021/12/24 03:31:16;;;;;;;2.42;1.75;;;;;;;5.42;100.00;99045.00;6035873;29;20160;-93
2021/12/24 03:34:21;;;;;;;3.75;1.80;;;;;;;5.52;100.00;99032.25;6035637;29;20056;-93
2021/12/24 03:37:23;;;;;;;3.08;1.88;;;;;;;5.52;100.00;99030.47;6031419;29;20538;-93
2021/12/24 03:40:26;;;;;;;1.90;1.63;;;;;;;5.61;100.00;99026.34;6046236;29;20048;-93
2021/12/24 03:43:29;;;;;;;2.38;1.92;;;;;;;5.64;100.00;99025.25;6039942;29;20072;-93
2021/12/24 03:46:41;;;;;;;2.67;2.10;;;;;;;5.64;100.00;99020.97;6038624;29;20059;-93
2021/12/24 03:54:55;;;;;;;3.13;2.42;;;;;;;5.61;100.00;99019.47;6023548;29;20238;-93
2021/12/24 03:56:28;;;;;;;4.13;2.43;;;;;;;5.65;100.00;99008.94;6046112;29;20086;-93
2021/12/24 03:59:33;;;;;;;3.38;2.10;;;;;;;5.60;100.00;99006.75;6046042;29;20314;-94
2021/12/24 04:02:56;;;;;;;2.88;2.38;;;;;;;5.60;100.00;99005.00;6061046;29;20045;-93
2021/12/24 04:06:14;;;;;;;3.35;2.42;;;;;;;5.67;100.00;99004.50;6038474;29;20451;-93
2021/12/24 04:13:33;;;;;;;3.50;2.17;;;;;;;5.65;100.00;99002.06;5972933;29;20136;-92
2021/12/24 04:16:36;;;;;;;3.08;2.17;;;;;;;5.78;100.00;99004.41;6039985;29;20101;-93
2021/12/24 04:26:25;;;;;;;3.42;2.00;;;;;;;5.88;100.00;98981.34;6030653;29;20037;-92
2021/12/24 04:29:42;;;;;;;2.92;2.15;;;;;;;5.90;100.00;98971.75;6075742;23;20045;-93
2021/12/24 04:36:17;;;;;;;2.85;2.00;;;;;;;5.92;100.00;98983.53;6016192;29;20056;-93
2021/12/24 04:39:44;;;;;;;4.50;2.10;;;;;;;5.90;100.00;98967.44;6037277;29;20602;-93
2021/12/24 05:03:10;;;;;;;4.00;2.60;;;;;;;6.19;100.00;98977.03;6062636;23;20061;-92
2021/12/24 05:10:00;;;;;;;3.95;2.75;;;;;;;6.31;100.00;98978.53;6508222;23;20028;31
2021/12/24 05:13:07;;;;;;;3.95;2.55;;;;;;;6.35;100.00;98981.63;6085173;24;20042;-92
2021/12/24 05:24:24;;;;;;;6.20;3.47;;;;;;;6.42;100.00;98985.31;6010004;29;20038;-94
2021/12/24 05:31:10;;;;;;;5.85;3.78;;;;;;;6.45;100.00;98998.69;6600242;23;20053;-94
2021/12/24 05:34:51;;;;;;;5.93;3.83;;;;;;;6.46;100.00;98999.53;4143821;23;20049;-94
2021/12/24 05:37:53;;;;;;;5.72;4.15;;;;;;;6.42;100.00;98993.81;6044788;24;20072;-94
2021/12/24 05:40:55;;;;;;;6.63;4.18;;;;;;;6.43;100.00;98986.91;6033103;29;20366;-94
2021/12/24 05:43:59;;;;;;;6.15;4.28;;;;;;;6.48;100.00;98989.91;6034501;29;20048;-94
2021/12/24 05:47:01;;;;;;;6.53;4.00;;;;;;;6.47;100.00;98999.38;6019551;29;20041;-94
2021/12/24 05:50:12;;;;;;;5.43;3.67;;;;;;;6.53;100.00;98981.81;6033090;29;20050;-93
2021/12/24 05:53:17;;;;;;;6.40;4.35;;;;;;;6.59;100.00;98987.22;6029688;29;20060;-94
2021/12/24 05:56:33;;;;;;;6.45;3.97;;;;;;;6.59;100.00;98989.81;6011387;29;20087;-93
2021/12/24 05:59:47;;;;;;;6.68;4.32;;;;;;;6.64;100.00;98999.69;6025244;29;20416;-93
2021/12/24 06:02:49;;;;;;;6.38;4.25;;;;;;;6.72;100.00;98986.16;6026259;29;20054;-93
2021/12/24 06:05:51;;;;;;;5.82;3.65;;;;;;;6.79;100.00;98992.41;6011737;29;20083;-93
2021/12/24 06:08:53;;;;;;;6.20;3.90;;;;;;;6.84;100.00;98993.59;6012727;29;20171;-93
2021/12/24 06:11:55;;;;;;;6.93;3.67;;;;;;;6.93;100.00;98975.72;6011328;29;20125;-92
2021/12/24 06:15:03;;;;;;;6.28;3.95;;;;;;;6.90;100.00;98979.38;6015959;29;20042;-93
2021/12/24 06:18:11;;;;;;;5.78;3.67;;;;;;;6.90;100.00;98980.19;6011590;29;20496;-93
2021/12/24 06:21:14;;;;;;;4.78;3.83;;;;;;;6.91;100.00;98978.44;6011194;29;20053;-93
2021/12/24 06:24:18;;;;;;;5.10;3.50;;;;;;;6.93;100.00;98986.00;6026498;29;20054;-92
2021/12/24 06:27:21;;;;;;;4.82;3.22;;;;;;;6.99;100.00;98980.34;6033403;29;20034;-94
2021/12/24 06:30:29;;;;;;;4.82;3.33;;;;;;;7.00;100.00;98975.03;6029396;29;20555;-93
2021/12/24 06:33:31;;;;;;;6.32;4.10;;;;;;;7.01;100.00;98992.13;6025849;29;20101;-93
2021/12/24 06:36:36;;;;;;;4.80;3.45;;;;;;;7.11;100.00;98987.78;6029027;29;20049;-94
2021/12/24 06:39:39;;;;;;;5.78;3.70;;;;;;;7.15;100.00;98977.19;6030103;29;20794;-93
2021/12/24 06:42:41;;;;;;;4.97;3.42;;;;;;;7.16;100.00;98978.84;6011781;29;20048;-93
2021/12/24 06:45:43;;;;;;;5.47;4.13;;;;;;;7.18;100.00;98982.91;6028239;29;20049;-92
2021/12/24 06:48:45;;;;;;;5.50;3.72;;;;;;;7.15;100.00;98985.72;6029027;29;20587;-93
2021/12/24 06:51:47;;;;;;;5.72;3.47;;;;;;;7.17;100.00;98981.25;6029703;29;20044;-93
2021/12/24 06:54:49;;;;;;;7.05;4.43;;;;;;;7.13;100.00;98990.22;6027443;29;20049;-92
2021/12/24 06:57:52;;;;;;;6.05;4.22;;;;;;;7.13;100.00;98985.06;6011383;29;20059;-93
2021/12/24 07:00:55;;;;;;;5.78;3.70;;;;;;;7.14;100.00;98991.03;6011746;29;20049;-93
2021/12/24 07:03:58;;;;;;;6.00;3.75;;;;;;;7.15;100.00;98992.63;6025357;29;20605;-93
2021/12/24 07:07:00;;;;;;;5.85;3.58;;;;;;;7.19;100.00;99005.09;6011057;29;20505;-93
2021/12/24 07:10:05;;;;;;;5.45;3.80;;;;;;;7.24;100.00;98999.53;6024888;29;20054;-92
2021/12/24 07:13:06;;;;;;;5.13;3.38;;;;;;;7.21;100.00;99015.28;6011412;29;20050;-92
2021/12/24 07:16:09;;;;;;;5.03;3.50;;;;;;;7.20;100.00;98995.59;6028045;29;20080;-92
2021/12/24 07:19:11;;;;;;;5.93;3.67;;;;;;;7.29;100.00;98993.03;6011463;29;20054;-92
2021/12/24 07:22:14;;;;;;;7.20;4.00;;;;;;;7.36;100.00;99003.59;6026541;29;20049;-93
2021/12/24 07:25:16;;;;;;;6.53;4.28;;;;;;;7.32;100.00;98997.09;6025974;29;20551;-93
2021/12/24 07:28:18;;;;;;;5.93;3.95;;;;;;;7.30;100.00;99001.56;6024887;29;20053;-93
2021/12/24 07:31:20;;;;;;;5.38;4.07;;;;;;;7.31;100.00;98996.28;6010513;29;20525;-93
2021/12/24 07:34:22;;;;;;;6.88;4.57;;;;;;;7.34;100.00;99000.34;6028206;29;20138;-92
2021/12/24 07:37:24;;;;;;;5.68;4.03;;;;;;;7.34;100.00;99003.72;6008341;29;20091;-94
2021/12/24 07:40:27;;;;;;;7.60;4.80;;;;;;;7.43;100.00;99011.56;6011481;29;20097;-94
2021/12/24 07:43:30;;;;;;;8.00;4.65;;;;;;;7.51;100.00;99004.78;6028909;29;20049;-93
2021/12/24 07:46:54;;;;;;;7.55;4.93;;;;;;;7.52;100.00;99010.72;6007167;29;20073;-94
2021/12/24 07:50:02;;;;;;;8.13;5.22;;;;;;;7.45;100.00;98999.34;6028293;29;20189;-94
2021/12/24 07:53:07;;;;;;;9.05;6.15;;;;;;;7.48;100.00;98999.91;6026356;29;20484;-93
2021/12/24 07:56:09;;;;;;;9.27;5.65;;;;;;;7.43;100.00;99014.97;6027321;29;20049;-93
2021/12/24 07:59:12;;;;;;;10.77;6.43;;;;;;;7.47;100.00;99008.56;6009924;29;20672;-93
2021/12/24 08:02:25;;;;;;;10.85;6.45;;;;;;;7.43;100.00;99014.97;6025034;29;20506;-93
2021/12/24 08:05:27;;;;;;;12.60;7.32;;;;;;;7.33;100.00;98999.53;6025586;29;20090;-93
2021/12/24 08:08:29;;;;;;;9.13;5.90;;;;;;;7.44;100.00;99014.00;6009786;29;20050;-93
2021/12/24 08:11:31;;;;;;;9.55;5.60;;;;;;;7.51;100.00;99012.50;6027327;29;20045;-93
2021/12/24 08:14:34;;;;;;;9.32;6.03;;;;;;;7.59;100.00;99027.25;6013310;29;20624;-93
2021/12/24 08:17:36;;;;;;;8.95;5.85;;;;;;;7.57;100.00;99013.69;6016382;29;20053;-93
2021/12/24 08:20:38;;;;;;;10.77;5.93;;;;;;;7.52;100.00;99000.44;6025821;29;20042;-93
2021/12/24 08:23:41;;;;;;;10.88;5.97;;;;;;;7.51;100.00;99012.50;6024479;29;20412;-92
2021/12/24 08:26:44;;;;;;;10.52;5.90;;;;;;;7.50;100.00;99013.47;6022950;29;20709;-93
2021/12/24 08:29:45;;;;;;;7.88;5.50;;;;;;;7.47;100.00;99013.72;6025634;29;20056;-92
2021/12/24 08:33:01;;;;;;;9.05;5.30;;;;;;;7.51;100.00;99009.13;6023104;29;20467;-92
2021/12/24 08:36:06;;;;;;;7.72;5.03;;;;;;;7.60;100.00;99018.56;6009832;29;20797;-92
2021/12/24 08:39:08;;;;;;;9.63;5.93;;;;;;;7.65;100.00;99025.88;6025145;29;20381;-92
2021/12/24 08:42:10;;;;;;;9.40;5.78;;;;;;;7.67;100.00;99005.94;6009651;29;20057;-92
2021/12/24 08:45:13;;;;;;;10.35;5.88;;;;;;;7.68;100.00;99026.44;6024838;29;20045;-92
2021/12/24 08:48:15;;;;;;;8.88;5.82;;;;;;;7.79;100.00;99025.44;6025207;29;20144;-92
2021/12/24 08:51:17;;;;;;;6.47;4.85;;;;;;;7.80;100.00;99024.50;6025892;29;20045;-92
2021/12/24 08:54:21;;;;;;;7.63;5.55;;;;;;;7.80;100.00;99028.81;6025147;29;20057;-93
2021/12/24 08:57:26;;;;;;;9.48;5.20;;;;;;;7.93;100.00;99019.84;6028863;29;20056;-92
2021/12/24 09:00:29;;;;;;;7.70;5.50;;;;;;;7.95;100.00;99002.47;6026991;29;20037;-92
2021/12/24 09:03:32;;;;;;;8.15;4.47;;;;;;;7.94;100.00;99026.59;6003934;29;20042;-93
2021/12/24 09:06:35;;;;;;;7.50;4.95;;;;;;;7.99;100.00;99024.41;6022960;29;20053;-91
2021/12/24 09:09:37;;;;;;;8.85;5.20;;;;;;;8.00;100.00;99020.09;6021830;29;20033;-91
2021/12/24 09:12:43;;;;;;;9.13;5.93;;;;;;;7.99;100.00;99026.97;6023830;29;20491;-91
2021/12/24 09:15:45;;;;;;;11.60;6.38;;;;;;;8.04;100.00;99023.19;6021698;29;20045;-90
2021/12/24 09:18:55;;;;;;;8.15;6.28;;;;;;;8.04;100.00;99025.75;6007146;29;20124;-91
2021/12/24 09:21:58;;;;;;;10.27;5.45;;;;;;;8.07;100.00;99041.72;6024014;29;20389;-91
2021/12/24 09:25:00;;;;;;;9.18;5.22;;;;;;;8.00;100.00;99035.56;6024190;29;20049;-91
2021/12/24 09:28:03;;;;;;;11.93;5.78;;;;;;;7.89;100.00;99031.38;6020469;29;20191;-90
2021/12/24 09:31:05;;;;;;;7.47;4.80;;;;;;;7.76;100.00;99038.59;6019935;29;20057;-90
2021/12/24 09:34:07;;;;;;;8.30;5.10;;;;;;;7.76;100.00;99036.03;6020523;29;20547;-89
2021/12/24 09:37:10;;;;;;;8.05;4.70;;;;;;;7.70;100.00;99034.81;6021776;29;20069;-89
2021/12/24 09:40:13;;;;;;;6.20;4.18;;;;;;;7.74;100.00;99035.34;6022160;29;20698;-91
2021/12/24 09:43:15;;;;;;;8.90;5.05;;;;;;;7.79;100.00;99045.22;6020282;29;20041;-90
2021/12/24 09:46:17;;;;;;;8.40;4.60;;;;;;;7.84;100.00;99040.47;6021416;29;20045;-91
2021/12/24 09:49:20;;;;;;;8.65;4.60;;;;;;;7.85;100.00;99037.78;6198059;23;20020;-94
2021/12/24 09:52:27;;;;;;;8.98;3.65;;;;;;;7.88;100.00;99045.22;6046845;29;20057;-94
2021/12/24 09:55:29;;;;;;;8.25;4.32;;;;;;;7.89;100.00;99023.63;6031152;29;20053;-94
2021/12/24 09:58:32;;;;;;;5.68;3.60;;;;;;;7.89;100.00;99026.22;6038617;29;20049;-93
2021/12/24 10:01:38;;;;;;;6.10;3.53;;;;;;;7.96;100.00;99024.69;6036635;29;20042;-94
2021/12/24 10:04:42;;;;;;;10.75;5.15;;;;;;;8.01;100.00;99034.59;6015292;29;20148;-93
2021/12/24 10:07:44;;;;;;;8.77;4.50;;;;;;;8.03;100.00;99030.09;6029825;29;20105;-93
2021/12/24 10:10:50;;;;;;;7.70;4.13;;;;;;;8.09;100.00;99024.38;6027010;29;20053;-92
2021/12/24 10:13:56;;;;;;;8.55;4.78;;;;;;;8.08;100.00;99025.34;6007395;29;20407;-92
2021/12/24 10:16:58;;;;;;;7.45;4.60;;;;;;;8.10;100.00;99049.22;6022193;29;20427;-92
2021/12/24 10:20:12;;;;;;;8.70;4.53;;;;;;;8.06;100.00;99022.09;6020689;29;20049;-91
2021/12/24 10:23:43;;;;;;;10.45;4.40;;;;;;;8.18;100.00;99022.72;6004121;29;20098;-91
2021/12/24 10:26:51;;;;;;;7.13;4.78;;;;;;;8.25;100.00;99021.19;6022551;29;20050;-89
2021/12/24 10:29:53;;;;;;;8.23;4.78;;;;;;;8.26;100.00;99027.97;6024064;29;20120;-89
2021/12/24 10:33:11;;;;;;;9.48;4.28;;;;;;;8.28;100.00;99028.63;6004908;29;20057;-88
2021/12/24 10:36:13;;;;;;;9.80;4.47;;;;;;;8.37;100.00;99012.31;6020027;29;20080;-88
2021/12/24 10:39:25;;;;;;;6.60;4.10;;;;;;;8.43;100.00;99010.13;6021424;29;20514;-88
2021/12/24 10:42:39;;;;;;;7.50;4.45;;;;;;;8.49;100.00;99027.59;6024501;29;20190;-88
2021/12/24 10:45:44;;;;;;;4.28;2.92;;;;;;;8.46;100.00;99020.97;6019247;29;20448;-88
2021/12/24 10:49:34;;;;;;;5.65;3.33;;;;;;;8.53;100.00;99026.38;6025053;29;20074;-88
2021/12/24 10:55:51;;;;;;;5.25;3.58;;;;;;;8.63;100.00;99021.94;6052089;29;20768;-87
2021/12/24 10:58:54;;;;;;;6.32;3.58;;;;;;;8.59;100.00;99008.53;6051046;29;20060;-87
2021/12/24 11:02:09;;;;;;;5.53;2.88;;;;;;;8.55;100.00;99012.38;6050223;29;20086;-88
2021/12/24 11:05:37;;;;;;;4.90;3.22;;;;;;;8.54;100.00;99012.50;6048732;29;20059;-87
2021/12/24 11:08:40;;;;;;;4.47;3.08;;;;;;;8.57;100.00;99012.19;6051628;29;20053;-87
2021/12/24 11:11:45;;;;;;;5.03;3.20;;;;;;;8.52;100.00;99009.25;6034770;29;20067;-87
2021/12/24 11:14:47;;;;;;;7.40;3.40;;;;;;;8.52;100.00;99011.81;6052289;29;20037;-86
2021/12/24 11:17:51;;;;;;;5.82;3.28;;;;;;;8.51;100.00;99010.22;6051312;29;20052;-86
2021/12/24 11:21:03;;;;;;;8.13;3.53;;;;;;;8.44;100.00;99016.91;6050646;29;20041;-87
2021/12/24 11:24:05;;;;;;;8.02;3.63;;;;;;;8.41;100.00;99016.22;6051357;29;20475;-87
2021/12/24 11:27:08;;;;;;;6.40;3.97;;;;;;;8.41;100.00;99023.97;6050387;29;20056;-86
2021/12/24 11:30:10;;;;;;;7.82;4.13;;;;;;;8.42;100.00;99029.94;6050418;29;20082;-86
2021/12/24 11:33:21;;;;;;;7.70;4.55;;;;;;;8.38;100.00;99024.22;6033223;29;20045;-86
2021/12/24 11:36:26;;;;;;;5.95;3.28;;;;;;;8.35;100.00;99016.00;6045026;29;20045;-86
2021/12/24 11:39:29;;;;;;;7.13;3.63;;;;;;;8.33;100.00;99016.13;6049188;29;20045;-86
2021/12/24 11:42:38;;;;;;;4.35;3.55;;;;;;;8.30;100.00;99013.84;6051129;29;20049;-86
2021/12/24 11:45:40;;;;;;;5.10;3.17;;;;;;;8.25;100.00;99018.63;6050610;29;20049;-86
2021/12/24 11:48:47;;;;;;;6.75;3.67;;;;;;;8.27;100.00;99026.19;6032438;29;20246;-86
2021/12/24 11:51:49;;;;;;;5.03;3.22;;;;;;;8.21;100.00;99017.28;6032300;29;20088;-86
2021/12/24 11:54:54;;;;;;;4.20;3.10;;;;;;;8.17;100.00;99028.81;6050269;29;20045;-86
2021/12/24 11:58:06;;;;;;;7.47;4.25;;;;;;;8.11;100.00;99034.53;6049620;29;20045;-86
2021/12/24 12:01:09;;;;;;;8.00;4.28;;;;;;;8.00;100.00;99032.97;6048274;29;20515;-86
2021/12/24 12:04:18;;;;;;;8.75;4.85;;;;;;;7.91;100.00;99039.78;6049805;29;20060;-86
2021/12/24 12:07:24;;;;;;;7.50;4.43;;;;;;;7.84;100.00;99030.97;6048732;29;20056;-86
2021/12/24 12:11:01;;;;;;;3.65;2.42;;;;;;;7.72;100.00;99066.38;6045398;29;20037;-86
2021/12/24 12:14:10;;;;;;;2.15;0.95;;;;;;;6.97;100.00;99044.78;6050151;29;20492;-87
2021/12/24 12:17:23;;;;;;;2.42;0.95;;;;;;;6.45;100.00;99082.72;6043324;29;20494;-89
2021/12/24 12:20:45;;;;;;;1.17;0.55;;;;;;;5.80;100.00;99072.66;6049132;29;20049;-87
2021/12/24 12:27:17;;;;;;;1.05;0.63;;;;;;;5.24;100.00;99101.19;6046855;29;20406;-89
2021/12/24 12:30:46;;;;;;;0.88;0.73;;;;;;;5.07;100.00;99084.56;6047781;29;20053;-88
2021/12/24 12:33:49;;;;;;;1.95;0.90;;;;;;;4.97;100.00;99107.56;6046672;29;20033;-88
2021/12/24 12:36:51;;;;;;;1.30;0.70;;;;;;;4.78;100.00;99099.69;6047657;29;20049;-88
2021/12/24 12:40:04;;;;;;;1.17;0.77;;;;;;;4.67;100.00;99115.91;6047529;29;20037;-88
2021/12/24 12:43:09;;;;;;;1.13;0.82;;;;;;;4.67;100.00;99107.38;6047996;29;20064;-89
2021/12/24 12:46:39;;;;;;;1.08;0.40;;;;;;;4.63;100.00;99109.38;6046590;29;20037;-88
2021/12/24 12:49:44;;;;;;;0.55;0.55;;;;;;;4.46;100.00;99131.16;6030860;29;20084;-89
2021/12/24 12:52:46;;;;;;;0.60;0.60;;;;;;;4.40;100.00;99115.44;6031796;29;20463;-88
2021/12/24 12:56:23;;;;;;;0.50;0.50;;;;;;;4.23;100.00;99125.22;6029583;29;20059;-87
2021/12/24 12:59:26;;;;;;;0.50;0.50;;;;;;;4.13;100.00;99118.34;6030459;29;20052;-89
2021/12/24 13:06:09;;;;;;;0.80;0.80;;;;;;;4.12;100.00;99130.31;6049503;29;20428;-89
2021/12/24 13:09:14;;;;;;;3.13;1.85;;;;;;;4.12;100.00;99143.09;6027564;29;20041;-90
2021/12/24 13:12:21;;;;;;;;;;;;;;;4.06;100.00;99158.94;6031273;29;20041;-89
2021/12/24 13:15:24;;;;;;;0.60;0.60;;;;;;;3.99;100.00;99162.88;6048712;29;19928;-89
2021/12/24 13:18:32;;;;;;;0.45;0.45;;;;;;;3.95;100.00;99169.97;6031787;29;20049;-89
2021/12/24 13:24:58;;;;;;;1.80;1.02;;;;;;;3.94;100.00;99178.56;6027467;29;20425;-89
2021/12/24 13:28:02;;;;;;;2.80;1.35;;;;;;;3.83;100.00;99183.69;6031074;29;20076;-90
2021/12/24 13:31:16;;;;;;;2.50;1.60;;;;;;;3.78;100.00;99193.44;6031014;29;20056;-89
2021/12/24 13:34:19;;;;;;;0.70;0.70;;;;;;;3.81;100.00;99196.56;6029386;29;20041;-89
2021/12/24 13:37:21;;;;;;;1.42;1.00;;;;;;;3.78;100.00;99196.81;6047746;29;20503;-89
2021/12/24 13:40:31;;;;;;;0.55;0.50;;;;;;;3.66;100.00;99202.81;6029507;29;20045;-89
2021/12/24 13:43:48;;;;;;;1.00;0.90;;;;;;;3.48;100.00;99196.41;6030861;29;20053;-90
2021/12/24 13:47:51;;;;;;;0.93;0.90;;;;;;;3.50;100.00;99208.19;6045834;29;20453;-90
2021/12/24 13:57:34;;;;;;;1.33;1.13;;;;;;;3.44;100.00;99247.00;6043698;29;20053;-90
2021/12/24 14:00:45;;;;;;;0.95;0.95;;;;;;;3.41;100.00;99258.25;6042857;29;20050;-90
2021/12/24 14:03:48;;;;;;;1.10;1.00;;;;;;;3.38;100.00;99239.72;6040924;29;20053;-90
2021/12/24 14:06:54;;;;;;;5.03;1.50;;;;;;;3.36;100.00;99241.59;6048874;29;20061;-88
2021/12/24 14:09:56;;;;;;;2.08;1.55;;;;;;;3.38;100.00;99253.38;6048013;29;20093;-87
2021/12/24 14:13:05;;;;;;;2.92;2.10;;;;;;;3.44;100.00;99262.34;6049014;29;20048;-88
2021/12/24 14:16:29;;;;;;;2.28;1.60;;;;;;;3.34;100.00;99267.28;6036393;29;20428;-88
2021/12/24 14:19:47;;;;;;;3.83;2.50;;;;;;;3.37;100.00;99274.72;6030436;29;20045;-86
2021/12/24 14:22:49;;;;;;;3.85;2.47;;;;;;;3.24;100.00;99274.75;6048172;29;20167;-87
2021/12/24 14:26:01;;;;;;;3.80;2.70;;;;;;;3.22;100.00;99283.47;6036511;29;20056;-86
2021/12/24 14:29:06;;;;;;;2.90;2.28;;;;;;;3.11;100.00;99286.75;6053238;29;20064;-88
2021/12/24 14:32:28;;;;;;;6.35;3.92;;;;;;;2.98;100.00;99293.59;6031001;29;20053;-88
2021/12/24 14:35:31;;;;;;;;;;;;;;;2.94;100.00;99300.69;6050190;29;20045;-88
2021/12/24 14:38:34;;;;;;;1.60;1.50;;;;;;;2.78;100.00;99310.28;6053486;29;20546;-88
2021/12/24 14:41:36;;;;;;;1.67;1.20;;;;;;;2.62;100.00;99322.44;6053491;29;20063;-88
2021/12/24 14:44:38;;;;;;;1.90;1.70;;;;;;;2.61;100.00;99324.19;6051564;29;20052;-89
2021/12/24 14:47:41;;;;;;;1.75;1.40;;;;;;;2.49;100.00;99330.91;6050774;29;20507;-88
2021/12/24 14:50:58;;;;;;;2.25;1.20;;;;;;;2.56;100.00;99333.88;6051794;29;20040;-88
2021/12/24 14:54:04;;;;;;;1.20;1.00;;;;;;;2.34;100.00;99344.66;6035284;29;20049;-87
2021/12/24 14:57:07;;;;;;;1.25;1.10;;;;;;;2.20;100.00;99347.25;6050792;29;20181;-87
2021/12/24 15:00:12;;;;;;;1.63;1.05;;;;;;;2.14;100.00;99346.75;6048406;29;20605;-87
2021/12/24 15:03:16;;;;;;;4.18;2.75;;;;;;;2.18;100.00;99346.53;6051778;29;20517;-87
2021/12/24 15:06:41;;;;;;;2.55;1.73;;;;;;;2.06;100.00;99355.78;6050964;29;20041;-88
2021/12/24 15:09:45;;;;;;;2.63;1.40;;;;;;;1.91;100.00;99368.59;6033868;29;20519;-87
2021/12/24 15:12:59;;;;;;;1.20;1.00;;;;;;;1.92;100.00;99372.78;6052735;29;20404;-87
2021/12/24 15:16:01;;;;;;;1.05;0.80;;;;;;;1.87;100.00;99377.34;6050985;29;20069;-87
2021/12/24 15:19:06;;;;;;;1.63;1.20;;;;;;;1.78;100.00;99387.28;6051061;29;20134;-87
2021/12/24 15:22:08;;;;;;;1.60;1.27;;;;;;;1.76;100.00;99389.09;6051706;29;20064;-87
2021/12/24 15:25:10;;;;;;;1.85;1.60;;;;;;;1.66;100.00;99384.56;6051035;29;20052;-88
2021/12/24 15:28:15;;;;;;;2.00;1.40;;;;;;;1.66;100.00;99397.31;6052227;29;20503;-88
2021/12/24 15:31:18;;;;;;;1.95;1.70;;;;;;;1.63;100.00;99404.34;6051410;29;20045;-88
2021/12/24 15:34:21;;;;;;;2.10;1.42;;;;;;;1.60;100.00;99404.53;6051699;29;20053;-88
2021/12/24 15:37:23;;;;;;;1.23;1.13;;;;;;;1.56;100.00;99403.88;6050338;29;20165;-87
2021/12/24 15:40:25;;;;;;;1.60;1.45;;;;;;;1.64;100.00;99421.28;6051723;29;20396;-87
2021/12/24 15:43:42;;;;;;;2.70;1.83;;;;;;;1.69;100.00;99425.22;6047546;29;20109;-87
2021/12/24 15:46:44;;;;;;;1.80;1.65;;;;;;;1.50;100.00;99428.03;6029429;29;20052;-87
2021/12/24 15:49:46;;;;;;;3.63;2.10;;;;;;;1.48;100.00;99429.84;6031392;29;20045;-87
2021/12/24 15:52:48;;;;;;;3.45;2.30;;;;;;;1.45;100.00;99435.13;6049962;29;20065;-87
2021/12/24 15:55:50;;;;;;;3.15;2.42;;;;;;;1.45;100.00;99440.22;6048580;29;20053;-87
2021/12/24 15:58:52;;;;;;;3.67;2.97;;;;;;;1.48;100.00;99436.66;6051394;29;20077;-87
2021/12/24 16:01:54;;;;;;;4.85;2.45;;;;;;;1.51;100.00;99444.13;6045468;29;20743;-87
2021/12/24 16:04:56;;;;;;;2.42;2.22;;;;;;;1.51;100.00;99451.78;6044529;29;20074;-87
2021/12/24 16:07:58;;;;;;;4.80;2.35;;;;;;;1.47;100.00;99447.78;6048838;29;20044;-86
2021/12/24 16:11:00;;;;;;;4.47;1.90;;;;;;;1.50;100.00;99461.16;6050594;29;20056;-87
2021/12/24 16:14:02;;;;;;;3.42;2.35;;;;;;;1.57;100.00;99461.63;6034915;29;20077;-87
2021/12/24 16:17:04;;;;;;;2.65;2.15;;;;;;;1.46;100.00;99458.88;6049729;29;20627;-88
2021/12/24 16:20:08;;;;;;;2.15;1.90;;;;;;;1.44;100.00;99456.44;6047256;29;20069;-87
2021/12/24 16:23:10;;;;;;;1.90;1.67;;;;;;;1.47;100.00;99468.19;6049105;29;20558;-86
2021/12/24 16:26:12;;;;;;;1.80;1.70;;;;;;;1.39;100.00;99465.25;6035255;29;20053;-88
2021/12/24 16:29:18;;;;;;;1.98;1.65;;;;;;;1.28;100.00;99470.97;6050690;29;20049;-87
2021/12/24 16:32:31;;;;;;;1.98;1.88;;;;;;;1.23;100.00;99465.31;6038486;29;20050;-87
2021/12/24 16:35:34;;;;;;;2.33;2.13;;;;;;;1.25;100.00;99458.41;6047398;29;20177;-87
2021/12/24 16:38:36;;;;;;;3.90;2.80;;;;;;;1.31;100.00;99468.25;6047870;29;20055;-88
2021/12/24 16:41:42;;;;;;;6.32;3.35;;;;;;;1.38;100.00;99469.53;6048681;29;20076;-87
2021/12/24 16:44:44;;;;;;;4.90;3.38;;;;;;;1.29;100.00;99475.16;6049694;29;20053;-88
2021/12/24 16:47:48;;;;;;;5.72;3.45;;;;;;;1.22;100.00;99481.53;6049190;29;20131;-88
2021/12/24 16:50:51;;;;;;;3.55;3.22;;;;;;;1.30;100.00;99489.56;6032719;29;20045;-88
2021/12/24 16:53:53;;;;;;;6.25;3.78;;;;;;;1.26;100.00;99488.91;6049085;29;20041;-87
2021/12/24 16:56:55;;;;;;;8.40;4.97;;;;;;;1.28;100.00;99502.38;6049489;29;20052;-88
2021/12/24 16:59:57;;;;;;;5.85;4.53;;;;;;;1.25;100.00;99511.94;6032882;29;20072;-88
2021/12/24 17:02:59;;;;;;;5.03;3.85;;;;;;;1.24;100.00;99517.94;6049510;29;20057;-88